createdAt,value
2019-02-17T00:00:09.637Z,0.00
2019-02-17T00:01:09.518Z,0.00
2019-02-17T00:02:09.474Z,0.00
2019-02-17T00:03:09.405Z,0.00
2019-02-17T00:04:09.356Z,0.00
2019-02-17T00:05:09.390Z,0.00
2019-02-17T00:06:09.221Z,0.00
2019-02-17T00:07:09.175Z,0.00
2019-02-17T00:08:09.157Z,0.00
2019-02-17T00:09:09.057Z,0.00
2019-02-17T00:10:09.027Z,0.00
2019-02-17T00:11:09.019Z,0.00
2019-02-17T00:12:08.891Z,0.00
2019-02-17T00:13:08.835Z,0.00
2019-02-17T00:14:08.810Z,0.00
2019-02-17T00:15:08.725Z,0.00
2019-02-17T00:16:08.725Z,0.00
2019-02-17T00:17:08.607Z,0.00
2019-02-17T00:18:08.550Z,0.00
2019-02-17T00:19:08.556Z,0.00
2019-02-17T00:20:08.440Z,0.00
2019-02-17T00:21:08.476Z,0.00
2019-02-17T00:22:08.335Z,0.00
2019-02-17T00:23:08.285Z,0.00
2019-02-17T00:24:08.209Z,0.00
2019-02-17T00:25:08.195Z,0.00
2019-02-17T00:26:08.160Z,0.00
2019-02-17T00:27:08.052Z,0.00
2019-02-17T00:28:08.013Z,0.00
2019-02-17T00:29:07.958Z,0.00
2019-02-17T00:30:07.878Z,0.00
2019-02-17T00:31:07.853Z,0.00
2019-02-17T00:32:07.774Z,0.00
2019-02-17T00:33:07.750Z,0.00
2019-02-17T00:34:07.680Z,0.00
2019-02-17T00:35:07.671Z,0.00
2019-02-17T00:36:07.581Z,0.00
2019-02-17T00:37:07.481Z,0.00
2019-02-17T00:38:07.424Z,0.00
2019-02-17T00:39:07.368Z,0.00
2019-02-17T00:40:07.308Z,0.00
2019-02-17T00:41:07.293Z,0.00
2019-02-17T00:42:07.204Z,0.00
2019-02-17T00:43:07.137Z,0.00
2019-02-17T00:44:07.114Z,0.00
2019-02-17T00:45:07.067Z,0.00
2019-02-17T00:46:07.026Z,0.00
2019-02-17T00:47:06.920Z,0.00
2019-02-17T00:48:06.876Z,0.00
2019-02-17T00:49:06.815Z,0.00
2019-02-17T00:50:06.753Z,0.00
2019-02-17T00:51:06.727Z,0.00
2019-02-17T00:52:06.635Z,0.00
2019-02-17T00:53:06.667Z,0.00
2019-02-17T00:54:06.519Z,0.00
2019-02-17T00:55:06.489Z,0.00
2019-02-17T00:56:06.450Z,0.00
2019-02-17T00:57:06.358Z,0.00
2019-02-17T00:58:06.299Z,0.00
2019-02-17T00:59:10.235Z,0.00
2019-02-17T01:00:06.197Z,0.00
2019-02-17T01:01:06.166Z,0.00
2019-02-17T01:02:06.091Z,0.00
2019-02-17T01:03:06.046Z,0.00
2019-02-17T01:04:06.002Z,0.00
2019-02-17T01:05:05.913Z,0.00
2019-02-17T01:06:05.897Z,0.00
2019-02-17T01:07:05.803Z,0.00
2019-02-17T01:08:05.769Z,0.00
2019-02-17T01:09:05.715Z,0.00
2019-02-17T01:10:05.628Z,0.00
2019-02-17T01:11:05.639Z,0.00
2019-02-17T01:12:05.505Z,0.00
2019-02-17T01:13:05.450Z,0.00
2019-02-17T01:14:05.405Z,0.00
2019-02-17T01:15:05.376Z,0.00
2019-02-17T01:16:05.295Z,0.00
2019-02-17T01:17:05.273Z,0.00
2019-02-17T01:18:05.180Z,0.00
2019-02-17T01:19:05.123Z,0.00
2019-02-17T01:20:05.072Z,0.00
2019-02-17T01:21:05.007Z,0.00
2019-02-17T01:22:05.026Z,0.00
2019-02-17T01:23:04.894Z,0.00
2019-02-17T01:24:04.859Z,0.00
2019-02-17T01:25:04.777Z,0.00
2019-02-17T01:26:04.743Z,0.00
2019-02-17T01:27:04.698Z,0.00
2019-02-17T01:28:04.617Z,0.00
2019-02-17T01:29:04.560Z,0.00
2019-02-17T01:30:04.520Z,0.00
2019-02-17T01:31:04.450Z,0.00
2019-02-17T01:32:04.446Z,0.00
2019-02-17T01:33:04.323Z,0.00
2019-02-17T01:34:04.273Z,0.00
2019-02-17T01:35:04.228Z,0.00
2019-02-17T01:36:04.173Z,0.00
2019-02-17T01:37:04.128Z,0.00
2019-02-17T01:38:04.041Z,0.00
2019-02-17T01:39:03.987Z,0.00
2019-02-17T01:40:03.935Z,0.00
2019-02-17T01:41:03.920Z,0.00
2019-02-17T01:42:03.851Z,0.00
2019-02-17T01:43:03.798Z,0.00
2019-02-17T01:44:03.708Z,0.00
2019-02-17T01:45:03.667Z,0.00
2019-02-17T01:46:03.599Z,0.00
2019-02-17T01:47:03.583Z,0.00
2019-02-17T01:48:03.510Z,0.00
2019-02-17T01:49:03.430Z,0.00
2019-02-17T01:50:03.360Z,0.00
2019-02-17T01:51:03.334Z,0.00
2019-02-17T01:52:03.313Z,0.00
2019-02-17T01:53:03.193Z,0.00
2019-02-17T01:54:03.146Z,0.00
2019-02-17T01:55:03.121Z,0.00
2019-02-17T01:56:03.064Z,0.00
2019-02-17T01:57:03.003Z,0.00
2019-02-17T01:58:02.917Z,0.00
2019-02-17T01:59:02.858Z,0.00
2019-02-17T02:00:02.798Z,0.00
2019-02-17T02:01:02.767Z,0.00
2019-02-17T02:02:02.740Z,0.00
2019-02-17T02:03:02.643Z,0.00
2019-02-17T02:04:02.594Z,0.00
2019-02-17T02:05:02.544Z,0.00
2019-02-17T02:06:02.464Z,0.00
2019-02-17T02:07:02.465Z,0.00
2019-02-17T02:08:02.352Z,0.00
2019-02-17T02:09:02.318Z,0.00
2019-02-17T02:10:02.235Z,0.00
2019-02-17T02:11:02.179Z,0.00
2019-02-17T02:12:02.187Z,0.00
2019-02-17T02:13:02.099Z,0.00
2019-02-17T02:14:02.023Z,0.00
2019-02-17T02:15:01.962Z,0.00
2019-02-17T02:16:01.894Z,0.00
2019-02-17T02:17:01.880Z,0.00
2019-02-17T02:18:01.863Z,0.00
2019-02-17T02:19:01.733Z,0.00
2019-02-17T02:20:01.690Z,0.00
2019-02-17T02:21:01.609Z,0.00
2019-02-17T02:22:01.565Z,0.00
2019-02-17T02:23:01.522Z,0.00
2019-02-17T02:24:01.446Z,0.00
2019-02-17T02:25:01.396Z,0.00
2019-02-17T02:26:01.384Z,0.00
2019-02-17T02:27:01.380Z,0.00
2019-02-17T02:28:01.260Z,0.00
2019-02-17T02:29:01.181Z,0.00
2019-02-17T02:30:01.167Z,0.00
2019-02-17T02:31:01.042Z,0.00
2019-02-17T02:32:00.997Z,0.00
2019-02-17T02:33:00.996Z,0.00
2019-02-17T02:34:00.881Z,0.00
2019-02-17T02:35:00.814Z,0.00
2019-02-17T02:36:00.800Z,0.00
2019-02-17T02:37:00.732Z,0.00
2019-02-17T02:38:00.688Z,0.00
2019-02-17T02:39:00.598Z,0.00
2019-02-17T02:40:00.543Z,0.00
2019-02-17T02:41:00.512Z,0.00
2019-02-17T02:42:00.426Z,0.00
2019-02-17T02:43:00.390Z,0.00
2019-02-17T02:44:00.321Z,0.00
2019-02-17T02:45:00.401Z,0.00
2019-02-17T02:46:00.198Z,0.00
2019-02-17T02:47:00.166Z,0.00
2019-02-17T02:48:00.174Z,0.00
2019-02-17T02:49:00.051Z,0.00
2019-02-17T02:49:59.976Z,0.00
2019-02-17T02:50:59.919Z,0.00
2019-02-17T02:51:59.856Z,0.00
2019-02-17T02:52:59.861Z,0.00
2019-02-17T02:53:59.744Z,0.00
2019-02-17T02:54:59.683Z,0.00
2019-02-17T02:55:59.644Z,0.00
2019-02-17T02:56:59.572Z,0.00
2019-02-17T02:57:59.563Z,0.00
2019-02-17T02:58:59.461Z,0.00
2019-02-17T02:59:59.419Z,0.00
2019-02-17T03:00:59.343Z,0.00
2019-02-17T03:01:59.309Z,0.00
2019-02-17T03:02:59.307Z,0.00
2019-02-17T03:03:59.222Z,0.00
2019-02-17T03:04:59.168Z,0.00
2019-02-17T03:05:59.078Z,0.00
2019-02-17T03:06:59.024Z,0.00
2019-02-17T03:07:58.997Z,0.00
2019-02-17T03:08:58.915Z,0.00
2019-02-17T03:09:58.835Z,0.00
2019-02-17T03:10:58.801Z,0.00
2019-02-17T03:11:58.759Z,0.00
2019-02-17T03:12:58.671Z,0.00
2019-02-17T03:13:58.657Z,0.00
2019-02-17T03:14:58.569Z,0.00
2019-02-17T03:15:58.510Z,0.00
2019-02-17T03:17:00.697Z,0.00
2019-02-17T03:17:58.412Z,0.00
2019-02-17T03:18:58.367Z,0.00
2019-02-17T03:19:58.282Z,0.00
2019-02-17T03:20:58.217Z,0.00
2019-02-17T03:21:58.157Z,0.00
2019-02-17T03:22:58.094Z,0.00
2019-02-17T03:23:58.069Z,0.00
2019-02-17T03:24:58.001Z,0.00
2019-02-17T03:25:57.952Z,0.00
2019-02-17T03:26:57.871Z,0.00
2019-02-17T03:27:57.824Z,0.00
2019-02-17T03:28:57.799Z,0.00
2019-02-17T03:30:04.837Z,0.00
2019-02-17T03:30:57.648Z,0.00
2019-02-17T03:31:57.587Z,0.00
2019-02-17T03:32:57.534Z,0.00
2019-02-17T03:33:57.518Z,0.00
2019-02-17T03:34:57.422Z,0.00
2019-02-17T03:35:57.376Z,0.00
2019-02-17T03:36:57.314Z,0.00
2019-02-17T03:37:57.259Z,0.00
2019-02-17T03:38:57.213Z,0.00
2019-02-17T03:39:57.153Z,0.00
2019-02-17T03:40:57.145Z,0.00
2019-02-17T03:41:57.065Z,0.00
2019-02-17T03:42:56.973Z,0.00
2019-02-17T03:43:56.965Z,0.00
2019-02-17T03:44:56.900Z,0.00
2019-02-17T03:45:56.839Z,0.00
2019-02-17T03:46:56.734Z,0.00
2019-02-17T03:47:56.677Z,0.00
2019-02-17T03:48:56.671Z,0.00
2019-02-17T03:49:56.566Z,0.00
2019-02-17T03:50:56.511Z,0.00
2019-02-17T03:51:56.461Z,0.00
2019-02-17T03:52:56.405Z,0.00
2019-02-17T03:53:56.375Z,0.00
2019-02-17T03:54:56.284Z,0.00
2019-02-17T03:55:56.287Z,0.00
2019-02-17T03:56:56.198Z,0.00
2019-02-17T03:57:56.108Z,0.00
2019-02-17T03:58:56.081Z,0.00
2019-02-17T03:59:56.015Z,0.00
2019-02-17T04:00:55.961Z,0.00
2019-02-17T04:01:55.914Z,0.00
2019-02-17T04:02:55.833Z,0.00
2019-02-17T04:03:55.813Z,0.00
2019-02-17T04:04:55.709Z,0.00
2019-02-17T04:05:55.659Z,0.00
2019-02-17T04:06:55.603Z,0.00
2019-02-17T04:07:55.548Z,0.00
2019-02-17T04:08:55.587Z,0.00
2019-02-17T04:09:55.459Z,0.00
2019-02-17T04:10:55.388Z,0.00
2019-02-17T04:11:55.316Z,0.00
2019-02-17T04:12:55.268Z,0.00
2019-02-17T04:13:55.237Z,0.00
2019-02-17T04:14:55.154Z,0.00
2019-02-17T04:15:55.090Z,0.00
2019-02-17T04:16:55.034Z,0.00
2019-02-17T04:17:54.993Z,0.00
2019-02-17T04:18:54.952Z,0.00
2019-02-17T04:19:54.861Z,0.00
2019-02-17T04:20:54.846Z,0.00
2019-02-17T04:21:54.753Z,0.00
2019-02-17T04:22:54.699Z,0.00
2019-02-17T04:23:54.687Z,0.00
2019-02-17T04:24:54.576Z,0.00
2019-02-17T04:25:54.599Z,0.00
2019-02-17T04:26:54.462Z,0.00
2019-02-17T04:27:54.407Z,0.00
2019-02-17T04:28:54.481Z,0.00
2019-02-17T04:29:54.318Z,0.00
2019-02-17T04:30:54.233Z,0.00
2019-02-17T04:31:54.188Z,0.00
2019-02-17T04:32:54.132Z,0.00
2019-02-17T04:33:54.100Z,0.00
2019-02-17T04:34:54.151Z,0.00
2019-02-17T04:35:53.987Z,0.00
2019-02-17T04:36:54.144Z,0.00
2019-02-17T04:37:53.835Z,0.00
2019-02-17T04:38:53.789Z,0.00
2019-02-17T04:39:53.751Z,0.00
2019-02-17T04:40:53.694Z,0.00
2019-02-17T04:41:53.646Z,0.00
2019-02-17T04:42:53.558Z,0.00
2019-02-17T04:43:53.492Z,0.00
2019-02-17T04:44:53.484Z,0.00
2019-02-17T04:45:53.382Z,0.00
2019-02-17T04:46:53.332Z,0.00
2019-02-17T04:47:53.286Z,0.00
2019-02-17T04:48:53.212Z,0.00
2019-02-17T04:49:53.188Z,0.00
2019-02-17T04:50:53.107Z,0.00
2019-02-17T04:51:53.041Z,0.00
2019-02-17T04:52:52.998Z,0.00
2019-02-17T04:53:52.945Z,0.00
2019-02-17T04:54:52.912Z,0.00
2019-02-17T04:55:52.822Z,0.00
2019-02-17T04:56:52.759Z,0.00
2019-02-17T04:57:52.709Z,0.00
2019-02-17T04:58:52.652Z,0.00
2019-02-17T04:59:52.636Z,0.00
2019-02-17T05:00:52.554Z,0.00
2019-02-17T05:01:52.472Z,0.00
2019-02-17T05:02:52.418Z,0.00
2019-02-17T05:03:52.365Z,0.00
2019-02-17T05:04:52.429Z,0.00
2019-02-17T05:05:52.263Z,0.00
2019-02-17T05:06:52.203Z,0.00
2019-02-17T05:07:52.134Z,0.00
2019-02-17T05:08:52.086Z,0.00
2019-02-17T05:09:52.057Z,0.00
2019-02-17T05:10:51.969Z,0.00
2019-02-17T05:11:51.937Z,0.00
2019-02-17T05:12:51.865Z,0.00
2019-02-17T05:13:51.807Z,0.00
2019-02-17T05:14:51.755Z,0.00
2019-02-17T05:15:51.692Z,0.00
2019-02-17T05:16:51.647Z,0.00
2019-02-17T05:17:51.609Z,0.00
2019-02-17T05:18:51.543Z,0.00
2019-02-17T05:19:51.477Z,0.00
2019-02-17T05:20:51.398Z,0.00
2019-02-17T05:21:51.337Z,0.00
2019-02-17T05:22:51.293Z,0.00
2019-02-17T05:23:51.229Z,0.00
2019-02-17T05:24:51.166Z,0.00
2019-02-17T05:25:51.154Z,0.00
2019-02-17T05:26:51.060Z,0.00
2019-02-17T05:27:51.012Z,0.00
2019-02-17T05:28:50.960Z,0.00
2019-02-17T05:29:50.891Z,0.00
2019-02-17T05:30:53.153Z,0.00
2019-02-17T05:31:50.767Z,0.00
2019-02-17T05:32:50.712Z,0.00
2019-02-17T05:33:50.649Z,0.00
2019-02-17T05:34:50.608Z,0.00
2019-02-17T05:35:50.572Z,0.00
2019-02-17T05:36:50.479Z,0.00
2019-02-17T05:37:50.431Z,0.00
2019-02-17T05:38:50.381Z,0.00
2019-02-17T05:39:50.326Z,0.00
2019-02-17T05:40:50.314Z,0.00
2019-02-17T05:41:50.200Z,0.00
2019-02-17T05:42:50.142Z,0.00
2019-02-17T05:43:50.099Z,0.00
2019-02-17T05:44:50.031Z,0.00
2019-02-17T05:45:50.008Z,0.00
2019-02-17T05:46:49.925Z,0.00
2019-02-17T05:47:49.860Z,0.00
2019-02-17T05:48:49.814Z,0.00
2019-02-17T05:49:49.744Z,0.00
2019-02-17T05:50:49.724Z,0.00
2019-02-17T05:51:49.693Z,0.00
2019-02-17T05:52:49.608Z,0.00
2019-02-17T05:53:49.543Z,0.00
2019-02-17T05:54:50.490Z,0.00
2019-02-17T05:55:49.442Z,0.00
2019-02-17T05:56:49.356Z,0.00
2019-02-17T05:57:49.314Z,0.00
2019-02-17T05:58:49.261Z,0.00
2019-02-17T05:59:49.183Z,0.00
2019-02-17T06:00:49.144Z,0.00
2019-02-17T06:01:49.069Z,0.00
2019-02-17T06:02:49.021Z,0.00
2019-02-17T06:03:48.982Z,0.00
2019-02-17T06:04:48.900Z,0.00
2019-02-17T06:05:48.872Z,0.00
2019-02-17T06:06:48.800Z,0.00
2019-02-17T06:07:48.752Z,0.00
2019-02-17T06:08:48.674Z,0.00
2019-02-17T06:09:48.614Z,0.00
2019-02-17T06:10:48.600Z,0.00
2019-02-17T06:11:48.501Z,0.00
2019-02-17T06:12:48.451Z,0.00
2019-02-17T06:13:48.399Z,0.00
2019-02-17T06:14:48.346Z,0.00
2019-02-17T06:15:48.325Z,0.00
2019-02-17T06:16:48.226Z,0.00
2019-02-17T06:17:48.173Z,0.00
2019-02-17T06:18:48.114Z,0.00
2019-02-17T06:19:48.074Z,0.00
2019-02-17T06:20:48.016Z,0.00
2019-02-17T06:21:47.961Z,0.00
2019-02-17T06:22:47.931Z,0.00
2019-02-17T06:23:47.821Z,0.00
2019-02-17T06:24:47.791Z,0.00
2019-02-17T06:25:47.708Z,0.00
2019-02-17T06:26:47.676Z,0.00
2019-02-17T06:27:47.593Z,0.00
2019-02-17T06:28:47.544Z,0.00
2019-02-17T06:29:49.096Z,0.00
2019-02-17T06:30:47.455Z,0.00
2019-02-17T06:31:47.385Z,0.00
2019-02-17T06:32:47.316Z,0.00
2019-02-17T06:33:47.253Z,0.00
2019-02-17T06:34:47.205Z,0.00
2019-02-17T06:35:47.129Z,0.00
2019-02-17T06:36:47.121Z,0.00
2019-02-17T06:37:47.031Z,0.00
2019-02-17T06:38:46.974Z,5.63
2019-02-17T06:39:46.911Z,5.63
2019-02-17T06:40:46.892Z,5.63
2019-02-17T06:41:46.826Z,5.63
2019-02-17T06:42:46.749Z,5.63
2019-02-17T06:43:46.710Z,5.63
2019-02-17T06:44:46.633Z,5.63
2019-02-17T06:45:46.634Z,5.63
2019-02-17T06:46:46.556Z,5.63
2019-02-17T06:47:46.464Z,5.63
2019-02-17T06:48:46.412Z,11.25
2019-02-17T06:49:46.360Z,11.25
2019-02-17T06:50:46.286Z,11.25
2019-02-17T06:51:46.285Z,11.25
2019-02-17T06:52:46.181Z,11.25
2019-02-17T06:53:46.162Z,11.25
2019-02-17T06:54:46.066Z,11.25
2019-02-17T06:55:46.014Z,16.88
2019-02-17T06:56:45.963Z,16.88
2019-02-17T06:57:45.893Z,16.88
2019-02-17T06:58:45.845Z,16.88
2019-02-17T06:59:45.775Z,16.88
2019-02-17T07:00:45.722Z,22.50
2019-02-17T07:01:45.709Z,22.50
2019-02-17T07:02:45.605Z,22.50
2019-02-17T07:03:45.569Z,22.50
2019-02-17T07:04:45.506Z,28.13
2019-02-17T07:05:45.459Z,28.13
2019-02-17T07:06:45.426Z,28.13
2019-02-17T07:07:45.342Z,28.13
2019-02-17T07:08:45.285Z,33.75
2019-02-17T07:09:45.298Z,33.75
2019-02-17T07:10:45.184Z,33.75
2019-02-17T07:11:45.087Z,33.75
2019-02-17T07:12:45.070Z,33.75
2019-02-17T07:13:44.984Z,33.75
2019-02-17T07:14:44.933Z,39.38
2019-02-17T07:15:44.875Z,39.38
2019-02-17T07:16:44.819Z,39.38
2019-02-17T07:17:44.795Z,39.38
2019-02-17T07:18:44.721Z,39.38
2019-02-17T07:19:44.654Z,45.00
2019-02-17T07:20:44.666Z,45.00
2019-02-17T07:21:44.530Z,45.00
2019-02-17T07:22:44.495Z,45.00
2019-02-17T07:23:44.502Z,50.63
2019-02-17T07:24:44.376Z,50.63
2019-02-17T07:25:44.337Z,50.63
2019-02-17T07:26:44.262Z,50.63
2019-02-17T07:27:44.213Z,56.25
2019-02-17T07:28:44.138Z,56.25
2019-02-17T07:29:44.075Z,56.25
2019-02-17T07:30:44.015Z,61.88
2019-02-17T07:31:43.966Z,61.88
2019-02-17T07:32:43.936Z,67.50
2019-02-17T07:33:43.842Z,61.88
2019-02-17T07:34:43.857Z,61.88
2019-02-17T07:35:43.739Z,61.88
2019-02-17T07:36:43.730Z,61.88
2019-02-17T07:37:43.682Z,67.50
2019-02-17T07:38:43.564Z,67.50
2019-02-17T07:39:43.520Z,61.88
2019-02-17T07:40:43.448Z,61.88
2019-02-17T07:41:43.407Z,61.88
2019-02-17T07:42:43.371Z,67.50
2019-02-17T07:43:43.315Z,67.50
2019-02-17T07:44:43.290Z,61.88
2019-02-17T07:45:43.204Z,61.88
2019-02-17T07:46:43.118Z,61.88
2019-02-17T07:47:43.083Z,61.88
2019-02-17T07:48:43.020Z,61.88
2019-02-17T07:49:42.946Z,67.50
2019-02-17T07:50:42.924Z,67.50
2019-02-17T07:51:42.832Z,67.50
2019-02-17T07:52:42.816Z,67.50
2019-02-17T07:53:42.753Z,67.50
2019-02-17T07:54:42.678Z,67.50
2019-02-17T07:55:42.620Z,67.50
2019-02-17T07:56:42.566Z,67.50
2019-02-17T07:57:42.537Z,73.13
2019-02-17T07:58:42.435Z,73.13
2019-02-17T07:59:42.392Z,73.13
2019-02-17T08:00:42.328Z,73.13
2019-02-17T08:01:45.208Z,73.13
2019-02-17T08:02:42.257Z,73.13
2019-02-17T08:03:42.166Z,73.13
2019-02-17T08:04:42.103Z,73.13
2019-02-17T08:05:42.065Z,73.13
2019-02-17T08:06:42.000Z,78.75
2019-02-17T08:07:41.938Z,78.75
2019-02-17T08:08:41.907Z,78.75
2019-02-17T08:09:41.826Z,78.75
2019-02-17T08:10:41.770Z,78.75
2019-02-17T08:11:41.722Z,78.75
2019-02-17T08:12:41.673Z,78.75
2019-02-17T08:13:41.631Z,78.75
2019-02-17T08:14:41.558Z,78.75
2019-02-17T08:15:41.492Z,78.75
2019-02-17T08:16:41.456Z,78.75
2019-02-17T08:17:41.381Z,78.75
2019-02-17T08:18:41.343Z,78.75
2019-02-17T08:19:41.283Z,78.75
2019-02-17T08:20:41.214Z,78.75
2019-02-17T08:21:41.158Z,78.75
2019-02-17T08:22:41.108Z,78.75
2019-02-17T08:23:41.121Z,78.75
2019-02-17T08:24:40.999Z,78.75
2019-02-17T08:25:40.939Z,78.75
2019-02-17T08:26:40.896Z,78.75
2019-02-17T08:27:40.839Z,78.75
2019-02-17T08:28:42.563Z,78.75
2019-02-17T08:29:40.722Z,78.75
2019-02-17T08:30:40.659Z,78.75
2019-02-17T08:31:40.605Z,84.38
2019-02-17T08:32:40.548Z,84.38
2019-02-17T08:33:40.528Z,84.38
2019-02-17T08:34:40.440Z,84.38
2019-02-17T08:35:40.384Z,84.38
2019-02-17T08:36:40.333Z,84.38
2019-02-17T08:37:40.321Z,84.38
2019-02-17T08:38:40.262Z,84.38
2019-02-17T08:39:40.172Z,84.38
2019-02-17T08:40:40.113Z,84.38
2019-02-17T08:41:40.059Z,95.63
2019-02-17T08:42:40.017Z,90.00
2019-02-17T08:43:39.977Z,90.00
2019-02-17T08:44:39.935Z,90.00
2019-02-17T08:45:39.841Z,90.00
2019-02-17T08:46:39.793Z,95.63
2019-02-17T08:47:39.729Z,95.63
2019-02-17T08:48:39.707Z,95.63
2019-02-17T08:49:39.624Z,95.63
2019-02-17T08:50:39.562Z,95.63
2019-02-17T08:51:39.508Z,101.25
2019-02-17T08:52:39.470Z,101.25
2019-02-17T08:53:39.426Z,106.88
2019-02-17T08:54:39.369Z,106.88
2019-02-17T08:55:39.286Z,106.88
2019-02-17T08:56:39.243Z,106.88
2019-02-17T08:57:39.188Z,106.88
2019-02-17T08:58:39.161Z,106.88
2019-02-17T08:59:39.072Z,106.88
2019-02-17T09:00:39.014Z,106.88
2019-02-17T09:01:40.493Z,106.88
2019-02-17T09:02:40.746Z,112.50
2019-02-17T09:03:38.894Z,112.50
2019-02-17T09:04:38.804Z,112.50
2019-02-17T09:05:44.106Z,112.50
2019-02-17T09:06:38.713Z,112.50
2019-02-17T09:07:38.649Z,112.50
2019-02-17T09:08:38.616Z,112.50
2019-02-17T09:09:38.535Z,106.88
2019-02-17T09:10:38.485Z,106.88
2019-02-17T09:11:38.443Z,106.88
2019-02-17T09:12:38.368Z,101.25
2019-02-17T09:13:38.344Z,101.25
2019-02-17T09:14:38.269Z,101.25
2019-02-17T09:15:38.231Z,101.25
2019-02-17T09:16:38.159Z,106.88
2019-02-17T09:17:38.108Z,106.88
2019-02-17T09:18:38.079Z,106.88
2019-02-17T09:19:38.039Z,106.88
2019-02-17T09:20:37.954Z,106.88
2019-02-17T09:21:37.967Z,101.25
2019-02-17T09:22:37.851Z,106.88
2019-02-17T09:23:37.822Z,106.88
2019-02-17T09:24:37.755Z,106.88
2019-02-17T09:25:37.681Z,106.88
2019-02-17T09:26:37.637Z,101.25
2019-02-17T09:27:37.580Z,101.25
2019-02-17T09:28:37.524Z,112.50
2019-02-17T09:29:37.499Z,112.50
2019-02-17T09:30:37.415Z,112.50
2019-02-17T09:31:37.370Z,118.13
2019-02-17T09:32:37.316Z,118.13
2019-02-17T09:33:37.268Z,118.13
2019-02-17T09:34:37.229Z,118.13
2019-02-17T09:35:37.143Z,118.13
2019-02-17T09:36:37.246Z,118.13
2019-02-17T09:37:37.040Z,118.13
2019-02-17T09:38:36.999Z,118.13
2019-02-17T09:39:36.961Z,112.50
2019-02-17T09:40:36.896Z,112.50
2019-02-17T09:41:36.841Z,112.50
2019-02-17T09:42:36.783Z,112.50
2019-02-17T09:43:36.744Z,112.50
2019-02-17T09:44:36.699Z,112.50
2019-02-17T09:45:36.622Z,112.50
2019-02-17T09:46:36.572Z,106.88
2019-02-17T09:47:36.579Z,106.88
2019-02-17T09:48:36.483Z,112.50
2019-02-17T09:49:36.478Z,106.88
2019-02-17T09:50:36.368Z,112.50
2019-02-17T09:51:36.309Z,112.50
2019-02-17T09:52:36.254Z,112.50
2019-02-17T09:53:36.208Z,112.50
2019-02-17T09:54:36.180Z,101.25
2019-02-17T09:55:36.106Z,101.25
2019-02-17T09:56:36.053Z,101.25
2019-02-17T09:57:36.011Z,95.63
2019-02-17T09:58:35.943Z,101.25
2019-02-17T09:59:35.938Z,101.25
2019-02-17T10:00:35.836Z,106.88
2019-02-17T10:01:35.789Z,112.50
2019-02-17T10:02:35.732Z,112.50
2019-02-17T10:03:35.692Z,112.50
2019-02-17T10:04:35.667Z,112.50
2019-02-17T10:05:35.587Z,118.13
2019-02-17T10:06:35.554Z,112.50
2019-02-17T10:07:35.472Z,112.50
2019-02-17T10:08:35.426Z,112.50
2019-02-17T10:09:35.370Z,112.50
2019-02-17T10:10:35.360Z,112.50
2019-02-17T10:11:35.287Z,106.88
2019-02-17T10:12:35.214Z,106.88
2019-02-17T10:13:35.176Z,106.88
2019-02-17T10:14:35.112Z,106.88
2019-02-17T10:15:35.101Z,106.88
2019-02-17T10:16:35.011Z,106.88
2019-02-17T10:17:34.957Z,106.88
2019-02-17T10:18:34.907Z,101.25
2019-02-17T10:19:34.856Z,101.25
2019-02-17T10:20:34.829Z,101.25
2019-02-17T10:21:34.752Z,101.25
2019-02-17T10:22:34.696Z,101.25
2019-02-17T10:23:34.658Z,101.25
2019-02-17T10:24:34.598Z,101.25
2019-02-17T10:25:34.573Z,101.25
2019-02-17T10:26:34.493Z,101.25
2019-02-17T10:27:34.463Z,101.25
2019-02-17T10:28:42.045Z,101.25
2019-02-17T10:29:34.351Z,101.25
2019-02-17T10:30:34.312Z,101.25
2019-02-17T10:31:34.237Z,101.25
2019-02-17T10:32:37.277Z,101.25
2019-02-17T10:33:34.129Z,101.25
2019-02-17T10:34:34.089Z,106.88
2019-02-17T10:35:34.070Z,106.88
2019-02-17T10:36:33.989Z,106.88
2019-02-17T10:37:33.927Z,106.88
2019-02-17T10:38:33.886Z,106.88
2019-02-17T10:39:33.831Z,106.88
2019-02-17T10:40:33.797Z,106.88
2019-02-17T10:41:33.727Z,101.25
2019-02-17T10:42:33.677Z,101.25
2019-02-17T10:43:33.618Z,106.88
2019-02-17T10:44:33.576Z,106.88
2019-02-17T10:45:33.549Z,106.88
2019-02-17T10:46:33.465Z,106.88
2019-02-17T10:47:33.412Z,106.88
2019-02-17T10:48:33.369Z,112.50
2019-02-17T10:49:33.316Z,106.88
2019-02-17T10:50:33.325Z,106.88
2019-02-17T10:51:33.216Z,106.88
2019-02-17T10:52:33.158Z,112.50
2019-02-17T10:53:33.141Z,112.50
2019-02-17T10:54:33.094Z,112.50
2019-02-17T10:55:33.080Z,112.50
2019-02-17T10:56:32.951Z,112.50
2019-02-17T10:57:32.928Z,112.50
2019-02-17T10:58:32.871Z,112.50
2019-02-17T10:59:32.826Z,106.88
2019-02-17T11:00:32.751Z,112.50
2019-02-17T11:01:32.741Z,112.50
2019-02-17T11:02:32.646Z,112.50
2019-02-17T11:03:32.608Z,106.88
2019-02-17T11:04:32.561Z,106.88
2019-02-17T11:05:32.501Z,106.88
2019-02-17T11:06:32.495Z,101.25
2019-02-17T11:07:32.422Z,101.25
2019-02-17T11:08:32.350Z,101.25
2019-02-17T11:09:32.312Z,101.25
2019-02-17T11:10:32.251Z,95.63
2019-02-17T11:11:32.243Z,101.25
2019-02-17T11:12:32.162Z,101.25
2019-02-17T11:13:32.091Z,95.63
2019-02-17T11:14:32.033Z,95.63
2019-02-17T11:15:31.988Z,95.63
2019-02-17T11:16:31.967Z,101.25
2019-02-17T11:17:31.884Z,101.25
2019-02-17T11:18:31.855Z,101.25
2019-02-17T11:19:31.784Z,101.25
2019-02-17T11:20:31.750Z,101.25
2019-02-17T11:21:31.744Z,95.63
2019-02-17T11:22:31.630Z,95.63
2019-02-17T11:23:31.602Z,101.25
2019-02-17T11:24:31.546Z,101.25
2019-02-17T11:25:31.488Z,101.25
2019-02-17T11:26:31.483Z,101.25
2019-02-17T11:27:31.378Z,101.25
2019-02-17T11:28:31.332Z,101.25
2019-02-17T11:29:31.314Z,101.25
2019-02-17T11:30:31.223Z,101.25
2019-02-17T11:31:31.209Z,101.25
2019-02-17T11:32:32.310Z,101.25
2019-02-17T11:33:31.079Z,101.25
2019-02-17T11:34:31.045Z,101.25
2019-02-17T11:35:31.001Z,101.25
2019-02-17T11:36:30.955Z,101.25
2019-02-17T11:37:30.872Z,101.25
2019-02-17T11:38:30.834Z,101.25
2019-02-17T11:39:30.772Z,101.25
2019-02-17T11:40:30.742Z,101.25
2019-02-17T11:41:30.724Z,101.25
2019-02-17T11:42:30.632Z,101.25
2019-02-17T11:43:30.592Z,101.25
2019-02-17T11:44:31.991Z,101.25
2019-02-17T11:45:30.475Z,101.25
2019-02-17T11:46:30.456Z,101.25
2019-02-17T11:47:30.375Z,101.25
2019-02-17T11:48:30.341Z,101.25
2019-02-17T11:49:30.269Z,101.25
2019-02-17T11:50:30.223Z,101.25
2019-02-17T11:51:30.199Z,101.25
2019-02-17T11:52:30.121Z,101.25
2019-02-17T11:53:30.069Z,101.25
2019-02-17T11:54:30.021Z,101.25
2019-02-17T11:55:29.970Z,101.25
2019-02-17T11:56:29.940Z,95.63
2019-02-17T11:57:29.889Z,95.63
2019-02-17T11:58:29.818Z,95.63
2019-02-17T11:59:29.765Z,95.63
2019-02-17T12:00:29.739Z,95.63
2019-02-17T12:01:29.691Z,95.63
2019-02-17T12:02:29.653Z,95.63
2019-02-17T12:03:29.574Z,95.63
2019-02-17T12:04:29.527Z,95.63
2019-02-17T12:05:29.491Z,95.63
2019-02-17T12:06:29.466Z,95.63
2019-02-17T12:07:29.369Z,95.63
2019-02-17T12:08:29.328Z,95.63
2019-02-17T12:09:29.266Z,95.63
2019-02-17T12:10:29.286Z,95.63
2019-02-17T12:11:29.199Z,101.25
2019-02-17T12:12:29.135Z,101.25
2019-02-17T12:13:29.067Z,95.63
2019-02-17T12:14:29.022Z,95.63
2019-02-17T12:15:28.963Z,95.63
2019-02-17T12:16:36.707Z,95.63
2019-02-17T12:17:28.932Z,95.63
2019-02-17T12:18:28.830Z,101.25
2019-02-17T12:19:28.773Z,101.25
2019-02-17T12:20:28.717Z,101.25
2019-02-17T12:21:28.695Z,101.25
2019-02-17T12:22:28.628Z,101.25
2019-02-17T12:23:28.590Z,101.25
2019-02-17T12:24:28.522Z,101.25
2019-02-17T12:25:28.489Z,101.25
2019-02-17T12:26:28.438Z,101.25
2019-02-17T12:27:28.379Z,101.25
2019-02-17T12:28:28.343Z,101.25
2019-02-17T12:29:28.275Z,101.25
2019-02-17T12:30:28.301Z,101.25
2019-02-17T12:31:28.168Z,101.25
2019-02-17T12:32:28.158Z,101.25
2019-02-17T12:33:28.073Z,95.63
2019-02-17T12:34:28.060Z,95.63
2019-02-17T12:35:27.967Z,101.25
2019-02-17T12:36:27.949Z,101.25
2019-02-17T12:37:27.887Z,101.25
2019-02-17T12:38:27.815Z,101.25
2019-02-17T12:39:27.769Z,101.25
2019-02-17T12:40:27.733Z,101.25
2019-02-17T12:41:27.669Z,101.25
2019-02-17T12:42:27.686Z,101.25
2019-02-17T12:43:27.562Z,101.25
2019-02-17T12:44:27.524Z,101.25
2019-02-17T12:45:27.480Z,101.25
2019-02-17T12:46:27.422Z,101.25
2019-02-17T12:47:27.385Z,101.25
2019-02-17T12:48:27.324Z,101.25
2019-02-17T12:49:27.285Z,101.25
2019-02-17T12:50:27.223Z,101.25
2019-02-17T12:51:27.159Z,101.25
2019-02-17T12:52:27.154Z,101.25
2019-02-17T12:53:27.085Z,101.25
2019-02-17T12:54:29.381Z,101.25
2019-02-17T12:55:26.971Z,101.25
2019-02-17T12:56:26.924Z,101.25
2019-02-17T12:57:26.922Z,101.25